createdAt,value
2022-11-30T00:03:28.281Z,5.67
2022-11-30T00:08:32.078Z,4.87
2022-11-30T00:13:35.615Z,4.77
2022-11-30T00:18:40.684Z,5.33
2022-11-30T00:23:46.138Z,5.47
2022-11-30T00:28:50.718Z,5.70
2022-11-30T00:33:55.687Z,4.43
2022-11-30T00:38:59.222Z,5.90
2022-11-30T00:44:02.749Z,6.90
2022-11-30T00:49:07.651Z,6.70
2022-11-30T00:54:11.251Z,7.33
2022-11-30T00:59:14.822Z,8.37
2022-11-30T01:04:19.734Z,7.10
2022-11-30T01:09:23.297Z,6.47
2022-11-30T01:14:27.066Z,7.53
2022-11-30T01:19:31.935Z,5.43
2022-11-30T01:24:35.457Z,7.10
2022-11-30T01:29:39.008Z,7.47
2022-11-30T01:34:44.056Z,6.00
2022-11-30T01:39:47.744Z,4.87
2022-11-30T01:44:55.246Z,5.10
2022-11-30T01:50:05.420Z,6.03
2022-11-30T01:55:16.223Z,5.80
2022-11-30T02:00:20.616Z,6.03
2022-11-30T02:05:26.947Z,5.33
2022-11-30T02:10:33.059Z,6.07
2022-11-30T02:15:46.027Z,4.97
2022-11-30T02:21:03.596Z,5.97
2022-11-30T02:26:18.581Z,5.80
2022-11-30T02:31:29.660Z,5.07
2022-11-30T02:36:34.062Z,8.63
2022-11-30T02:41:38.802Z,5.37
2022-11-30T02:46:54.434Z,5.07
2022-11-30T02:51:59.774Z,5.57
2022-11-30T02:57:03.316Z,5.03
2022-11-30T03:02:08.248Z,6.53
2022-11-30T03:07:11.768Z,5.17
2022-11-30T03:12:15.302Z,5.03
2022-11-30T03:17:20.249Z,4.83
2022-11-30T03:22:24.008Z,4.23
2022-11-30T03:27:27.581Z,4.63
2022-11-30T03:32:32.505Z,3.23
2022-11-30T03:37:36.044Z,4.77
2022-11-30T03:42:39.651Z,4.23
2022-11-30T03:47:44.999Z,4.10
2022-11-30T03:52:48.596Z,4.07
2022-11-30T03:57:52.109Z,4.00
2022-11-30T04:02:57.341Z,3.60
2022-11-30T04:08:00.960Z,4.23
2022-11-30T04:13:04.504Z,4.30
2022-11-30T04:18:09.469Z,4.10
2022-11-30T04:23:13.679Z,3.43
2022-11-30T04:28:18.021Z,3.90
2022-11-30T04:33:22.972Z,3.30
2022-11-30T04:38:27.392Z,3.27
2022-11-30T04:43:30.891Z,3.83
2022-11-30T04:48:36.137Z,3.80
2022-11-30T04:53:40.462Z,5.83
2022-11-30T04:58:43.994Z,4.97
2022-11-30T05:03:48.891Z,4.27
2022-11-30T05:08:52.455Z,5.60
2022-11-30T05:13:55.976Z,3.50
2022-11-30T05:19:00.933Z,4.03
2022-11-30T05:24:04.986Z,3.83
2022-11-30T05:29:08.541Z,4.03
2022-11-30T05:34:13.562Z,5.07
2022-11-30T05:39:17.643Z,4.20
2022-11-30T05:44:21.236Z,4.67
2022-11-30T05:49:26.100Z,3.83
2022-11-30T05:54:29.680Z,5.27
2022-11-30T05:59:33.344Z,5.67
2022-11-30T06:04:38.272Z,5.17
2022-11-30T06:09:41.929Z,4.93
2022-11-30T06:14:45.809Z,6.13
2022-11-30T06:19:51.014Z,6.00
2022-11-30T06:24:54.529Z,4.83
2022-11-30T06:29:58.033Z,4.60
2022-11-30T06:35:03.059Z,5.77
2022-11-30T06:40:08.460Z,4.57
2022-11-30T06:45:12.483Z,4.57
2022-11-30T06:50:17.656Z,4.53
2022-11-30T06:55:21.163Z,5.10
2022-11-30T07:00:25.764Z,4.40
2022-11-30T07:05:32.505Z,7.17
2022-11-30T07:10:39.618Z,4.90
2022-11-30T07:15:44.111Z,5.50
2022-11-30T07:20:49.063Z,5.03
2022-11-30T07:26:09.509Z,5.67
2022-11-30T07:31:18.862Z,4.47
2022-11-30T07:36:26.469Z,4.33
2022-11-30T07:41:30.223Z,4.67
2022-11-30T07:46:35.876Z,4.83
2022-11-30T07:51:40.774Z,4.87
2022-11-30T07:56:44.360Z,4.27
2022-11-30T08:01:47.994Z,3.90
2022-11-30T08:06:55.247Z,3.73
2022-11-30T08:11:58.775Z,4.50
2022-11-30T08:17:02.504Z,4.73
2022-11-30T08:22:07.433Z,4.83
2022-11-30T08:27:11.016Z,5.07
2022-11-30T08:32:14.512Z,4.17
2022-11-30T08:37:19.397Z,4.03
2022-11-30T08:42:22.974Z,4.53
2022-11-30T08:47:26.530Z,3.67
2022-11-30T08:52:31.569Z,3.50
2022-11-30T08:57:35.195Z,3.90
2022-11-30T09:02:38.931Z,3.47
2022-11-30T09:07:43.938Z,3.47
2022-11-30T09:12:47.516Z,3.90
2022-11-30T09:17:51.108Z,3.23
2022-11-30T09:22:56.306Z,4.13
2022-11-30T09:27:59.861Z,3.97
2022-11-30T09:33:03.417Z,4.03
2022-11-30T09:38:08.389Z,3.57
2022-11-30T09:43:25.474Z,3.07
2022-11-30T09:48:47.146Z,3.40
2022-11-30T09:53:57.389Z,4.40
2022-11-30T09:59:05.811Z,3.13
2022-11-30T10:04:22.106Z,3.40
2022-11-30T10:09:35.075Z,4.97
2022-11-30T10:15:00.303Z,4.27
2022-11-30T10:20:18.754Z,4.37
2022-11-30T10:25:25.885Z,4.10
2022-11-30T10:30:35.600Z,3.97
2022-11-30T10:35:42.364Z,4.20
2022-11-30T10:40:52.141Z,4.30
2022-11-30T10:45:56.122Z,4.33
2022-11-30T10:51:01.383Z,4.40
2022-11-30T10:56:10.371Z,4.67
2022-11-30T11:01:31.277Z,4.03
2022-11-30T11:06:35.208Z,4.77
2022-11-30T11:11:40.602Z,4.50
2022-11-30T11:16:56.016Z,5.27
2022-11-30T11:22:00.417Z,4.80
2022-11-30T11:27:05.376Z,5.63
2022-11-30T11:32:20.027Z,5.53
2022-11-30T11:37:28.593Z,5.53
2022-11-30T11:42:38.386Z,5.10
2022-11-30T11:47:49.290Z,4.40
2022-11-30T11:53:15.217Z,4.10
2022-11-30T11:58:28.041Z,5.37
2022-11-30T12:03:39.707Z,5.40
2022-11-30T12:08:48.728Z,5.83
2022-11-30T12:13:54.036Z,7.13
2022-11-30T12:19:04.138Z,5.67
2022-11-30T12:24:26.718Z,6.57
2022-11-30T12:29:40.950Z,6.47
2022-11-30T12:35:02.540Z,6.90
2022-11-30T12:40:23.203Z,5.20
2022-11-30T12:45:32.580Z,5.80
2022-11-30T12:50:49.537Z,6.33
2022-11-30T12:56:06.023Z,6.30
2022-11-30T13:01:30.701Z,5.90
2022-11-30T13:06:39.961Z,5.93
2022-11-30T13:11:49.600Z,7.87
2022-11-30T13:17:02.410Z,6.10
2022-11-30T13:22:11.376Z,6.57
2022-11-30T13:27:20.027Z,6.23
2022-11-30T13:32:56.787Z,8.73
2022-11-30T13:38:28.598Z,6.50
2022-11-30T13:43:28.618Z,6.83
2022-11-30T13:48:38.053Z,7.30
2022-11-30T13:53:44.040Z,5.70
2022-11-30T13:59:22.699Z,6.47
2022-11-30T14:04:34.415Z,6.07
2022-11-30T14:10:22.835Z,6.40
2022-11-30T14:15:56.257Z,6.03
2022-11-30T14:21:03.715Z,6.27
2022-11-30T14:26:12.048Z,5.03
2022-11-30T14:31:19.642Z,5.87
2022-11-30T14:36:33.899Z,5.63
2022-11-30T14:41:42.156Z,7.50
2022-11-30T14:46:45.959Z,6.73
2022-11-30T14:51:53.820Z,5.63
2022-11-30T14:57:03.719Z,5.40
2022-11-30T15:02:18.006Z,6.80
2022-11-30T15:07:25.015Z,5.93
2022-11-30T15:12:28.745Z,6.33
2022-11-30T15:17:32.434Z,6.53
2022-11-30T15:22:37.405Z,6.80
2022-11-30T15:27:41.222Z,4.83
2022-11-30T15:32:47.152Z,5.97
2022-11-30T15:37:53.565Z,5.47
2022-11-30T15:42:57.347Z,5.30
2022-11-30T15:48:01.860Z,5.50
2022-11-30T15:53:40.760Z,4.90
2022-11-30T15:59:00.324Z,4.20
2022-11-30T16:04:07.940Z,5.10
2022-11-30T16:09:21.347Z,5.67
2022-11-30T16:14:25.363Z,5.27
2022-11-30T16:19:28.970Z,5.37
2022-11-30T16:24:33.916Z,5.40
2022-11-30T16:29:37.685Z,4.23
2022-11-30T16:34:41.689Z,5.17
2022-11-30T16:39:47.069Z,5.13
2022-11-30T16:44:50.851Z,4.67
2022-11-30T16:49:54.387Z,4.50
2022-11-30T16:54:59.266Z,4.10
2022-11-30T17:00:03.503Z,4.37
2022-11-30T17:05:08.352Z,3.90
2022-11-30T17:10:14.110Z,4.50
2022-11-30T17:15:20.910Z,3.90
2022-11-30T17:20:24.645Z,3.70
2022-11-30T17:25:29.657Z,4.20
2022-11-30T17:30:33.414Z,4.07
2022-11-30T17:35:39.880Z,3.30
2022-11-30T17:40:45.151Z,3.90
2022-11-30T17:45:49.203Z,3.50
2022-11-30T17:50:53.401Z,3.00
2022-11-30T17:56:05.336Z,3.43
2022-11-30T18:01:15.379Z,3.63
2022-11-30T18:06:19.475Z,3.07
2022-11-30T18:11:26.057Z,3.10
2022-11-30T18:16:31.219Z,2.63
2022-11-30T18:21:34.900Z,2.93
2022-11-30T18:26:40.404Z,2.80
2022-11-30T18:31:44.198Z,2.40
2022-11-30T18:36:47.836Z,3.40
2022-11-30T18:41:52.762Z,2.87
2022-11-30T18:46:56.364Z,2.23
2022-11-30T18:51:59.880Z,2.83
2022-11-30T18:57:04.941Z,2.77
2022-11-30T19:02:09.801Z,2.83
2022-11-30T19:07:13.482Z,3.13
2022-11-30T19:12:18.430Z,2.23
2022-11-30T19:17:22.007Z,2.50
2022-11-30T19:22:30.032Z,1.90
2022-11-30T19:27:35.799Z,2.00
2022-11-30T19:32:39.432Z,2.00
2022-11-30T19:37:42.935Z,1.97
2022-11-30T19:42:47.839Z,1.67
2022-11-30T19:47:51.485Z,2.00
2022-11-30T19:52:55.054Z,1.83
2022-11-30T19:58:00.128Z,1.47
2022-11-30T20:03:09.716Z,1.27
2022-11-30T20:08:13.740Z,1.93
2022-11-30T20:13:18.640Z,1.30
2022-11-30T20:18:22.228Z,1.43
2022-11-30T20:23:25.857Z,1.50
2022-11-30T20:28:30.760Z,1.47
2022-11-30T20:33:34.700Z,1.53
2022-11-30T20:38:38.702Z,2.43
2022-11-30T20:43:44.028Z,1.90
2022-11-30T20:48:48.589Z,1.77
2022-11-30T20:53:52.896Z,1.70
2022-11-30T20:59:01.560Z,1.60
2022-11-30T21:04:05.363Z,1.53
2022-11-30T21:09:08.950Z,1.63
2022-11-30T21:14:14.456Z,1.50
2022-11-30T21:19:17.978Z,1.60
2022-11-30T21:24:21.537Z,1.57
2022-11-30T21:29:26.413Z,1.30
2022-11-30T21:34:29.947Z,1.80
2022-11-30T21:39:35.069Z,1.40
2022-11-30T21:44:40.201Z,2.53
2022-11-30T21:49:43.715Z,1.50
2022-11-30T21:54:48.676Z,1.23
2022-11-30T21:59:53.634Z,1.43
2022-11-30T22:04:57.124Z,1.23
2022-11-30T22:10:00.691Z,1.60
2022-11-30T22:15:06.427Z,1.50
2022-11-30T22:20:10.846Z,1.10
2022-11-30T22:25:14.533Z,1.00
2022-11-30T22:30:19.590Z,1.20
2022-11-30T22:35:23.129Z,1.40
2022-11-30T22:40:26.678Z,1.20
2022-11-30T22:45:33.890Z,1.20
2022-11-30T22:50:37.463Z,1.30
2022-11-30T22:55:45.128Z,1.17
2022-11-30T23:00:52.984Z,0.97
2022-11-30T23:05:56.769Z,0.70
2022-11-30T23:11:00.523Z,1.10
2022-11-30T23:16:05.976Z,0.80
2022-11-30T23:21:12.292Z,1.00
2022-11-30T23:26:18.093Z,0.80
2022-11-30T23:31:32.150Z,0.70
2022-11-30T23:36:38.586Z,1.00
2022-11-30T23:41:42.491Z,1.00
2022-11-30T23:46:47.428Z,1.30
2022-11-30T23:51:51.071Z,0.73
2022-11-30T23:56:54.640Z,1.00
